Time;durP1;ratioP1;P1;durP2;ratioP2;P2;SDS_P1;SDS_P2;PMS_P1;PMS_P2;Temp;Humidity;BMP_temperature;BMP_pressure;BME280_temperature;BME280_humidity;BME280_pressure;Samples;Min_cycle;Max_cycle;Signal;HPM_P1;HPM_P2
2021/03/11 08:28:37;;;;;;;7.97;0.87;;;14.60;99.90;;;;;;2761050;23;20244;-75
2021/03/11 08:31:06;;;;;;;11.20;1.40;;;14.20;99.90;;;;;;4937211;29;20243;-75
2021/03/11 08:33:45;;;;;;;11.10;1.50;;;13.90;99.90;;;;;;4937508;29;20237;-75
2021/03/11 08:36:36;;;;;;;13.53;1.30;;;13.80;99.90;;;;;;4937269;29;20236;-76
2021/03/11 08:39:28;;;;;;;10.07;1.30;;;13.70;99.90;;;;;;4937414;29;20264;-75
2021/03/11 08:41:54;;;;;;;6.47;1.03;;;13.90;99.90;;;;;;4937407;29;20213;-75
2021/03/11 08:44:45;;;;;;;4.73;0.77;;;13.90;99.90;;;;;;4937408;29;20212;-75
2021/03/11 08:47:12;;;;;;;6.63;1.07;;;14.00;99.90;;;;;;4932437;29;20806;-76
2021/03/11 08:49:44;;;;;;;4.37;0.90;;;14.30;99.90;;;;;;4938877;29;20235;-77
2021/03/11 08:52:42;;;;;;;2.57;0.80;;;14.70;99.90;;;;;;4936928;29;20679;-78
2021/03/11 08:55:35;;;;;;;7.67;1.43;;;14.60;99.90;;;;;;4936817;29;20303;-75
2021/03/11 08:58:02;;;;;;;6.73;1.23;;;14.50;99.90;;;;;;4936978;29;20205;-77
2021/03/11 09:00:55;;;;;;;3.27;0.90;;;14.30;99.90;;;;;;4936745;29;20209;-82
2021/03/11 09:03:46;;;;;;;4.73;0.67;;;14.10;99.90;;;;;;4932406;29;20208;-78
2021/03/11 09:06:14;;;;;;;4.07;0.63;;;14.10;99.90;;;;;;4927222;29;20224;-74
2021/03/11 09:08:48;;;;;;;3.80;0.70;;;14.00;99.90;;;;;;4936616;29;20209;-78
2021/03/11 09:11:20;;;;;;;6.83;0.90;;;14.10;99.90;;;;;;4936572;29;20238;-73
2021/03/11 09:13:49;;;;;;;4.70;1.10;;;14.50;99.90;;;;;;4933549;29;20284;-71
2021/03/11 09:16:17;;;;;;;5.27;0.93;;;14.30;99.90;;;;;;4935221;29;20239;-75
2021/03/11 09:18:44;;;;;;;9.93;1.10;;;14.10;99.90;;;;;;4934801;29;20649;-74
2021/03/11 09:21:10;;;;;;;5.50;1.03;;;14.00;99.90;;;;;;4935863;29;20248;-73
2021/03/11 09:23:39;;;;;;;9.03;1.73;;;13.90;99.90;;;;;;4935159;29;20204;-73
2021/03/11 09:26:06;;;;;;;7.77;1.30;;;13.70;99.90;;;;;;4935267;29;20229;-69
2021/03/11 09:28:33;;;;;;;9.37;1.40;;;13.70;99.90;;;;;;4935433;29;20220;-70
2021/03/11 09:31:00;;;;;;;8.80;0.87;;;13.70;99.90;;;;;;4935029;29;20240;-76
2021/03/11 09:33:27;;;;;;;9.63;1.27;;;13.60;99.90;;;;;;4935239;29;20205;-79
2021/03/11 09:35:54;;;;;;;6.87;0.77;;;13.60;99.90;;;;;;4934872;29;20232;-76
2021/03/11 09:38:23;;;;;;;5.40;1.20;;;13.60;99.90;;;;;;4934877;29;20300;-71
2021/03/11 09:40:51;;;;;;;3.40;0.70;;;13.60;99.90;;;;;;4934169;29;20276;-72
2021/03/11 09:43:26;;;;;;;9.60;1.47;;;13.60;99.90;;;;;;4934305;29;20216;-80
2021/03/11 09:45:56;;;;;;;7.70;1.37;;;13.70;99.90;;;;;;4934919;29;20243;-73
2021/03/11 09:48:27;;;;;;;8.80;1.10;;;13.80;99.90;;;;;;4934931;29;20217;-71
2021/03/11 09:50:59;;;;;;;7.57;1.03;;;13.70;99.90;;;;;;4934910;29;20267;-79
2021/03/11 09:53:36;;;;;;;5.57;1.40;;;13.50;99.90;;;;;;4934526;29;20255;-70
2021/03/11 09:56:03;;;;;;;9.27;1.13;;;13.60;99.90;;;;;;4935166;29;20232;-82
2021/03/11 09:58:30;;;;;;;6.07;1.43;;;13.80;99.90;;;;;;4934587;29;20212;-75
2021/03/11 10:00:57;;;;;;;4.60;0.67;;;14.10;99.90;;;;;;4934909;29;20227;-76
2021/03/11 10:03:26;;;;;;;10.67;1.87;;;14.20;99.90;;;;;;4934710;29;20256;-78
2021/03/11 10:05:57;;;;;;;5.63;1.20;;;14.20;99.90;;;;;;4934468;29;20592;-72
2021/03/11 10:08:35;;;;;;;4.73;0.90;;;14.40;99.90;;;;;;4933416;29;20219;-71
2021/03/11 10:11:07;;;;;;;8.27;1.23;;;14.30;99.90;;;;;;4933631;29;20236;-73
2021/03/11 10:13:49;;;;;;;9.73;1.20;;;14.50;99.90;;;;;;4934085;29;20571;-71
2021/03/11 10:16:18;;;;;;;4.17;1.30;;;14.50;99.90;;;;;;4935308;29;20572;-71
2021/03/11 10:19:04;;;;;;;12.30;1.30;;;14.30;99.90;;;;;;4935488;29;20209;-71
2021/03/11 10:21:32;;;;;;;7.13;1.10;;;14.40;99.90;;;;;;4935293;29;20216;-70
2021/03/11 10:23:59;;;;;;;8.77;1.17;;;14.30;99.90;;;;;;4935497;29;20674;-72
2021/03/11 10:26:26;;;;;;;5.40;0.87;;;14.10;99.90;;;;;;4935816;29;20237;-71
2021/03/11 10:29:01;;;;;;;5.03;1.00;;;14.00;99.90;;;;;;4934988;29;20699;-71
2021/03/11 10:31:27;;;;;;;8.43;1.83;;;13.70;99.90;;;;;;4935425;29;20271;-75
2021/03/11 10:34:01;;;;;;;9.70;1.50;;;13.50;99.90;;;;;;4935852;29;20220;-73
2021/03/11 10:36:28;;;;;;;8.30;1.70;;;13.40;99.90;;;;;;4935340;29;20612;-72
2021/03/11 10:39:07;;;;;;;7.90;1.20;;;13.30;99.90;;;;;;4935490;29;20571;-78
2021/03/11 10:41:35;;;;;;;5.10;1.07;;;13.10;99.90;;;;;;4916279;29;20676;-73
2021/03/11 10:44:13;;;;;;;5.37;1.03;;;12.90;99.90;;;;;;4935790;29;20208;-77
2021/03/11 10:46:41;;;;;;;4.77;1.47;;;12.90;99.90;;;;;;4935257;29;20225;-73
2021/03/11 10:49:08;;;;;;;7.37;1.00;;;12.90;99.90;;;;;;4935030;29;20223;-71
2021/03/11 10:51:35;;;;;;;5.57;1.43;;;13.00;99.90;;;;;;4935820;29;20237;-73
2021/03/11 10:54:02;;;;;;;6.40;1.50;;;13.10;99.90;;;;;;4937761;29;20208;-72
2021/03/11 10:56:29;;;;;;;5.67;1.13;;;13.20;99.90;;;;;;4938816;29;20799;-71
2021/03/11 10:59:04;;;;;;;9.03;1.33;;;13.20;99.90;;;;;;4938614;29;20213;-72
2021/03/11 11:01:31;;;;;;;6.70;1.70;;;13.30;99.90;;;;;;4939043;29;20212;-71
2021/03/11 11:03:59;;;;;;;5.23;1.13;;;13.60;99.90;;;;;;4939123;29;20347;-74
2021/03/11 11:06:26;;;;;;;6.20;1.20;;;13.70;99.90;;;;;;4939151;29;20236;-77
2021/03/11 11:08:52;;;;;;;5.33;0.77;;;13.90;99.90;;;;;;4938522;29;20219;-75
2021/03/11 11:11:20;;;;;;;4.33;1.63;;;14.10;99.90;;;;;;4938612;29;20244;-74
2021/03/11 11:13:47;;;;;;;8.53;1.43;;;14.10;99.90;;;;;;4938840;29;20217;-74
2021/03/11 11:16:14;;;;;;;3.87;0.90;;;13.80;99.90;;;;;;4937078;29;20239;-75
2021/03/11 11:18:41;;;;;;;8.20;1.07;;;13.70;99.90;;;;;;4937502;29;20205;-74
2021/03/11 11:21:08;;;;;;;10.10;1.00;;;13.70;99.90;;;;;;4938470;29;20232;-74
2021/03/11 11:23:34;;;;;;;9.23;1.20;;;13.80;99.90;;;;;;4938809;29;20209;-75
2021/03/11 11:26:01;;;;;;;4.33;1.17;;;13.80;99.90;;;;;;4938883;29;20257;-74
2021/03/11 11:28:28;;;;;;;6.30;1.00;;;13.90;99.90;;;;;;4938678;29;20216;-74
2021/03/11 11:30:54;;;;;;;3.70;0.70;;;14.00;99.90;;;;;;4938435;29;20240;-75
2021/03/11 11:33:21;;;;;;;11.80;0.67;;;14.30;99.90;;;;;;4938818;29;20218;-74
2021/03/11 11:35:50;;;;;;;5.73;0.70;;;14.40;99.90;;;;;;4938771;29;20247;-78
2021/03/11 11:38:16;;;;;;;8.03;1.00;;;14.50;99.90;;;;;;4938871;29;20209;-74
2021/03/11 11:40:42;;;;;;;5.93;0.83;;;14.60;99.90;;;;;;4938290;29;20685;-75
2021/03/11 11:43:09;;;;;;;8.47;1.07;;;14.50;99.90;;;;;;4938382;29;20644;-75
2021/03/11 11:45:36;;;;;;;4.30;1.50;;;14.50;99.90;;;;;;4938446;29;20232;-74
2021/03/11 11:48:02;;;;;;;3.33;0.73;;;14.50;99.90;;;;;;4938304;29;20208;-75
2021/03/11 11:50:29;;;;;;;7.13;1.27;;;14.50;99.90;;;;;;4938299;29;20584;-74
2021/03/11 11:52:55;;;;;;;2.47;0.60;;;14.60;99.90;;;;;;4938214;29;20260;-74
2021/03/11 11:55:22;;;;;;;4.60;0.70;;;14.60;99.90;;;;;;4938203;29;20236;-74
2021/03/11 11:57:48;;;;;;;3.50;0.77;;;14.40;99.90;;;;;;4938376;29;20204;-75
2021/03/11 12:00:17;;;;;;;1.97;0.70;;;14.40;99.90;;;;;;4938444;29;20220;-74
2021/03/11 12:02:44;;;;;;;4.63;0.70;;;14.30;99.90;;;;;;4938103;29;20213;-74
2021/03/11 12:05:11;;;;;;;5.90;1.10;;;14.10;99.90;;;;;;4937697;29;20225;-78
2021/03/11 12:07:38;;;;;;;2.50;0.80;;;14.10;99.90;;;;;;4937912;29;20213;-75
2021/03/11 12:10:06;;;;;;;6.30;0.80;;;14.10;99.90;;;;;;4938120;29;20243;-78
2021/03/11 12:12:32;;;;;;;4.27;0.60;;;14.00;99.90;;;;;;4938165;29;20238;-73
2021/03/11 12:14:58;;;;;;;5.90;1.23;;;14.30;99.90;;;;;;4937757;29;20220;-73
2021/03/11 12:17:24;;;;;;;4.67;1.37;;;14.50;99.90;;;;;;4937735;29;20208;-72
2021/03/11 12:19:51;;;;;;;9.97;1.00;;;14.40;99.90;;;;;;4938064;29;20209;-72
2021/03/11 12:22:18;;;;;;;3.23;0.90;;;14.30;99.90;;;;;;4937976;29;20241;-75
2021/03/11 12:24:44;;;;;;;6.00;0.73;;;14.30;99.90;;;;;;4937910;29;20260;-76
2021/03/11 12:27:10;;;;;;;6.47;1.13;;;14.40;99.90;;;;;;4937645;29;20228;-73
2021/03/11 12:29:36;;;;;;;5.53;0.80;;;14.30;99.90;;;;;;4936933;29;20335;-73
2021/03/11 12:32:04;;;;;;;4.13;0.60;;;14.20;99.90;;;;;;4937909;29;20205;-75
2021/03/11 12:34:30;;;;;;;4.70;0.90;;;13.90;99.90;;;;;;4937552;29;20303;-74
2021/03/11 12:36:57;;;;;;;4.10;1.00;;;13.90;99.90;;;;;;4937682;29;20236;-73
2021/03/11 12:39:24;;;;;;;6.37;0.70;;;14.00;99.90;;;;;;4937695;29;20417;-73
2021/03/11 12:41:50;;;;;;;5.67;0.67;;;14.00;99.90;;;;;;4937849;29;20212;-76
2021/03/11 12:44:16;;;;;;;5.23;0.97;;;14.10;99.90;;;;;;4937511;29;20664;-74
2021/03/11 12:46:42;;;;;;;6.07;0.93;;;14.10;99.90;;;;;;4937733;29;20229;-74
2021/03/11 12:49:09;;;;;;;5.83;0.80;;;14.10;99.90;;;;;;4937238;29;20213;-74
2021/03/11 12:51:35;;;;;;;5.87;0.60;;;14.00;99.90;;;;;;4936503;29;20237;-70
2021/03/11 12:54:03;;;;;;;6.40;1.33;;;13.90;99.90;;;;;;4937217;29;20676;-73
2021/03/11 12:56:30;;;;;;;4.90;1.37;;;13.90;99.90;;;;;;4937265;29;20256;-74
2021/03/11 12:58:57;;;;;;;5.43;1.33;;;13.80;99.90;;;;;;4938260;29;20308;-73
2021/03/11 13:01:23;;;;;;;8.17;1.37;;;13.50;99.90;;;;;;4936951;29;20208;-76
2021/03/11 13:03:49;;;;;;;4.80;0.77;;;13.40;99.90;;;;;;4937132;29;20213;-69
2021/03/11 13:06:15;;;;;;;4.17;0.70;;;13.50;99.90;;;;;;4936872;29;20695;-69
2021/03/11 13:08:42;;;;;;;7.53;0.90;;;13.50;99.90;;;;;;4937226;29;20320;-69
2021/03/11 13:11:09;;;;;;;4.13;0.50;;;13.50;99.90;;;;;;4936467;29;20240;-70
2021/03/11 13:13:35;;;;;;;5.27;0.70;;;13.60;99.90;;;;;;4936537;29;20572;-75
2021/03/11 13:16:02;;;;;;;4.83;0.80;;;13.70;99.90;;;;;;4935967;29;20228;-71
2021/03/11 13:18:28;;;;;;;3.87;1.00;;;13.70;99.90;;;;;;4936484;29;20219;-78
2021/03/11 13:20:54;;;;;;;4.37;0.70;;;13.90;99.90;;;;;;4936310;29;20209;-75
2021/03/11 13:23:21;;;;;;;3.37;0.67;;;14.10;99.90;;;;;;4936825;29;20260;-74
2021/03/11 13:25:47;;;;;;;12.13;0.90;;;14.30;99.90;;;;;;4936712;29;20240;-76
2021/03/11 13:28:14;;;;;;;2.70;0.30;;;14.50;99.90;;;;;;4936535;29;20213;-78
2021/03/11 13:30:41;;;;;;;9.17;0.60;;;14.50;99.90;;;;;;4935009;29;20232;-74
2021/03/11 13:33:08;;;;;;;3.43;1.03;;;14.40;99.90;;;;;;4936257;29;20231;-76
2021/03/11 13:35:34;;;;;;;4.93;0.43;;;14.50;99.90;;;;;;4935883;29;20228;-77
2021/03/11 13:38:01;;;;;;;5.80;0.50;;;14.40;99.90;;;;;;4936294;29;20209;-78
2021/03/11 13:40:27;;;;;;;1.07;0.30;;;14.30;99.80;;;;;;4936214;29;20300;-79
2021/03/11 13:42:54;;;;;;;2.53;0.43;;;14.20;99.40;;;;;;4936245;29;20209;-78
2021/03/11 13:45:21;;;;;;;6.10;0.90;;;14.00;99.70;;;;;;4935067;29;20225;-79
2021/03/11 13:47:48;;;;;;;3.00;0.50;;;14.10;99.90;;;;;;4936591;29;20216;-79
2021/03/11 13:50:15;;;;;;;2.63;0.53;;;14.10;99.60;;;;;;4938189;29;20274;-78
2021/03/11 13:52:41;;;;;;;5.60;0.60;;;14.10;99.20;;;;;;4937546;29;20599;-79
2021/03/11 13:55:09;;;;;;;4.37;0.60;;;14.00;99.50;;;;;;4937072;29;20213;-78
2021/03/11 13:57:35;;;;;;;1.40;0.30;;;14.00;99.40;;;;;;4936617;29;20209;-80
2021/03/11 14:00:03;;;;;;;2.20;0.83;;;13.90;99.70;;;;;;4937038;29;20295;-80
2021/03/11 14:02:30;;;;;;;4.73;0.30;;;13.90;99.60;;;;;;4936494;29;20208;-81
2021/03/11 14:04:56;;;;;;;2.53;0.30;;;13.80;99.60;;;;;;4936008;29;20686;-80
2021/03/11 14:07:23;;;;;;;2.30;0.20;;;13.80;98.90;;;;;;4935490;29;20698;-79
2021/03/11 14:09:49;;;;;;;1.43;0.30;;;13.50;98.70;;;;;;4935462;29;20225;-80
2021/03/11 14:12:15;;;;;;;2.40;0.30;;;13.30;99.50;;;;;;4935076;29;20237;-79
2021/03/11 14:14:41;;;;;;;1.03;0.20;;;13.30;99.90;;;;;;4934679;29;20208;-79
2021/03/11 14:17:08;;;;;;;2.13;0.40;;;13.30;99.90;;;;;;4935407;29;20229;-78
2021/03/11 14:19:35;;;;;;;2.17;0.37;;;13.40;99.90;;;;;;4935362;29;20209;-77
2021/03/11 14:22:01;;;;;;;3.73;0.97;;;13.50;99.90;;;;;;4935002;29;20268;-77
2021/03/11 14:24:28;;;;;;;1.23;0.40;;;13.60;99.90;;;;;;4934934;29;20213;-71
2021/03/11 14:26:54;;;;;;;1.60;0.60;;;13.70;99.90;;;;;;4936348;29;20232;-79
2021/03/11 14:29:21;;;;;;;5.37;0.40;;;13.60;99.90;;;;;;4941722;29;20212;-79
2021/03/11 14:31:47;;;;;;;1.90;0.20;;;13.50;99.90;;;;;;4941637;29;20272;-81
2021/03/11 14:34:14;;;;;;;3.53;0.60;;;13.50;99.90;;;;;;4942072;29;20213;-77
2021/03/11 14:36:41;;;;;;;5.40;0.63;;;13.50;99.90;;;;;;4942004;29;20229;-78
2021/03/11 14:39:07;;;;;;;6.20;0.87;;;13.50;99.90;;;;;;4941442;29;20579;-87
2021/03/11 14:41:34;;;;;;;1.93;0.40;;;13.40;99.80;;;;;;4941618;29;20656;-77
2021/03/11 14:44:00;;;;;;;2.03;0.30;;;13.30;99.70;;;;;;4940819;29;20668;-81
2021/03/11 14:46:27;;;;;;;3.17;0.60;;;13.40;99.90;;;;;;4940964;29;20228;-74
2021/03/11 14:48:53;;;;;;;6.17;0.40;;;13.40;99.60;;;;;;4941449;29;20572;-78
2021/03/11 14:51:20;;;;;;;1.87;0.70;;;13.50;99.60;;;;;;4941488;29;20232;-80
2021/03/11 14:53:47;;;;;;;5.03;0.70;;;13.50;98.90;;;;;;4941630;29;20240;-74
2021/03/11 14:56:13;;;;;;;2.87;1.10;;;13.50;99.30;;;;;;4940609;29;20260;-77
2021/03/11 14:58:40;;;;;;;4.80;0.70;;;13.40;99.40;;;;;;4941098;29;20557;-77
2021/03/11 15:01:06;;;;;;;2.43;0.53;;;13.40;99.50;;;;;;4940178;29;20217;-79
2021/03/11 15:03:33;;;;;;;2.50;0.47;;;13.50;99.70;;;;;;4940498;29;20213;-76
2021/03/11 15:05:59;;;;;;;7.90;0.60;;;13.60;99.30;;;;;;4940491;29;20612;-78
2021/03/11 15:08:27;;;;;;;4.23;0.57;;;13.40;98.90;;;;;;4940101;29;20205;-72
2021/03/11 15:10:54;;;;;;;5.27;0.93;;;13.40;99.50;;;;;;4939721;29;20719;-81
2021/03/11 15:13:21;;;;;;;2.67;0.50;;;13.20;99.50;;;;;;4940711;29;20213;-76
2021/03/11 15:15:48;;;;;;;1.80;0.90;;;13.20;99.70;;;;;;4940323;29;20232;-73
2021/03/11 15:18:15;;;;;;;3.27;0.80;;;13.10;99.90;;;;;;4940347;29;20687;-73
2021/03/11 15:20:41;;;;;;;4.83;1.03;;;13.10;99.90;;;;;;4939751;29;20217;-77
2021/03/11 15:23:08;;;;;;;2.57;0.50;;;13.10;99.90;;;;;;4940308;29;20216;-73
2021/03/11 15:25:34;;;;;;;3.60;0.60;;;13.20;99.90;;;;;;4940417;29;20237;-72
2021/03/11 15:28:03;;;;;;;5.70;0.60;;;13.30;99.90;;;;;;4940704;29;20204;-71
2021/03/11 15:30:30;;;;;;;1.53;0.53;;;13.40;99.90;;;;;;4940650;29;20242;-74
2021/03/11 15:32:56;;;;;;;4.03;0.47;;;13.40;99.90;;;;;;4940363;29;20855;-78
2021/03/11 15:35:22;;;;;;;4.17;0.80;;;13.30;99.20;;;;;;4940932;29;20235;-74
2021/03/11 15:37:49;;;;;;;1.47;0.40;;;13.10;99.40;;;;;;4940648;29;20657;-73
2021/03/11 15:40:18;;;;;;;3.20;0.37;;;13.00;99.90;;;;;;4936238;29;20276;-77
2021/03/11 15:42:44;;;;;;;3.23;0.40;;;12.90;99.80;;;;;;4937918;29;20485;-75
2021/03/11 15:45:12;;;;;;;2.87;0.70;;;12.80;99.90;;;;;;4937960;29;20244;-73
2021/03/11 15:47:38;;;;;;;2.93;0.50;;;12.70;99.90;;;;;;4937035;29;20576;-69
2021/03/11 15:50:06;;;;;;;5.40;0.53;;;12.60;99.90;;;;;;4936566;29;20236;-74
2021/03/11 15:52:33;;;;;;;2.97;0.97;;;12.70;99.90;;;;;;4937414;29;20676;-66
2021/03/11 15:54:59;;;;;;;3.33;0.60;;;12.70;99.90;;;;;;4937698;29;20208;-68
2021/03/11 15:57:25;;;;;;;2.47;0.67;;;12.70;99.90;;;;;;4935312;29;20216;-67
2021/03/11 15:59:52;;;;;;;5.20;0.97;;;12.50;99.90;;;;;;4936085;29;20216;-67
2021/03/11 16:02:19;;;;;;;1.70;0.70;;;12.50;99.90;;;;;;4936780;29;20209;-69
2021/03/11 16:04:45;;;;;;;5.57;0.90;;;12.40;99.90;;;;;;4937674;29;20270;-69
2021/03/11 16:07:11;;;;;;;1.33;0.47;;;12.50;99.90;;;;;;4937631;29;20224;-69
2021/03/11 16:09:38;;;;;;;4.63;0.60;;;12.50;99.90;;;;;;4937983;29;20230;-68
2021/03/11 16:12:06;;;;;;;5.03;0.73;;;12.50;99.90;;;;;;4937962;29;20211;-69
2021/03/11 16:14:33;;;;;;;8.07;1.20;;;12.40;99.90;;;;;;4937814;29;20209;-69
2021/03/11 16:16:59;;;;;;;5.43;0.80;;;12.30;99.90;;;;;;4937871;29;20259;-69
2021/03/11 16:19:26;;;;;;;4.47;0.70;;;12.20;99.90;;;;;;4938119;29;20268;-69
2021/03/11 16:21:52;;;;;;;4.10;1.03;;;12.20;99.90;;;;;;4937651;29;20229;-69
2021/03/11 16:24:19;;;;;;;7.97;1.10;;;12.00;99.90;;;;;;4937793;29;20212;-69
2021/03/11 16:26:45;;;;;;;3.13;0.80;;;12.00;99.90;;;;;;4937594;29;20236;-69
2021/03/11 16:29:13;;;;;;;2.80;0.70;;;11.90;99.90;;;;;;4937613;29;20288;-69
2021/03/11 16:31:40;;;;;;;4.77;0.90;;;11.80;99.90;;;;;;4937192;29;20279;-69
2021/03/11 16:34:06;;;;;;;3.97;0.57;;;11.80;99.90;;;;;;4937660;29;20209;-69
2021/03/11 16:36:33;;;;;;;1.67;1.23;;;11.90;99.90;;;;;;4937481;29;20229;-69
2021/03/11 16:38:59;;;;;;;1.50;0.50;;;11.80;99.90;;;;;;4937488;29;20231;-69
2021/03/11 16:41:25;;;;;;;6.03;1.10;;;11.70;99.90;;;;;;4937070;29;20204;-67
2021/03/11 16:43:52;;;;;;;3.27;0.70;;;11.70;99.90;;;;;;4936361;29;20213;-68
2021/03/11 16:46:18;;;;;;;4.43;0.60;;;11.60;99.90;;;;;;4936760;29;20229;-68
2021/03/11 16:48:44;;;;;;;3.83;0.90;;;11.60;99.90;;;;;;4936640;29;20216;-68
2021/03/11 16:51:10;;;;;;;0.93;0.40;;;11.50;99.90;;;;;;4934476;29;20614;-67
2021/03/11 16:53:38;;;;;;;5.67;0.70;;;11.40;99.90;;;;;;4935858;29;20217;-69
2021/03/11 16:56:05;;;;;;;3.57;0.40;;;11.40;99.90;;;;;;4935879;29;20573;-69
2021/03/11 16:58:31;;;;;;;2.53;0.40;;;11.40;99.90;;;;;;4935608;29;20213;-67
2021/03/11 17:00:57;;;;;;;4.73;0.40;;;11.30;99.90;;;;;;4935786;29;20568;-68
2021/03/11 17:03:23;;;;;;;2.33;0.50;;;11.30;99.90;;;;;;4934972;29;20213;-70
2021/03/11 17:05:50;;;;;;;5.23;0.80;;;11.20;99.90;;;;;;4935807;29;20229;-67
2021/03/11 17:08:16;;;;;;;3.33;0.50;;;11.20;99.90;;;;;;4935718;29;20264;-68
2021/03/11 17:10:43;;;;;;;10.30;1.10;;;11.20;99.90;;;;;;4935090;29;20292;-68
2021/03/11 17:13:10;;;;;;;5.10;0.50;;;11.30;99.90;;;;;;4935439;29;20220;-69
2021/03/11 17:15:36;;;;;;;4.77;0.70;;;11.30;99.90;;;;;;4934694;29;20240;-68
2021/03/11 17:18:03;;;;;;;3.60;0.70;;;11.20;99.90;;;;;;4935892;29;20220;-67
2021/03/11 17:20:29;;;;;;;2.03;0.57;;;11.20;99.90;;;;;;4934585;29;20677;-67
2021/03/11 17:22:56;;;;;;;2.67;0.63;;;11.10;99.90;;;;;;4935627;29;20209;-68
2021/03/11 17:25:22;;;;;;;5.23;0.80;;;11.00;99.90;;;;;;4934696;29;20228;-67
2021/03/11 17:27:49;;;;;;;2.83;0.67;;;10.90;99.90;;;;;;4935916;29;20205;-69
2021/03/11 17:30:16;;;;;;;2.80;0.57;;;10.90;99.90;;;;;;4935713;29;20233;-68
2021/03/11 17:32:43;;;;;;;1.93;0.60;;;10.90;99.90;;;;;;4935686;29;20209;-68
2021/03/11 17:35:11;;;;;;;4.33;0.50;;;10.90;99.90;;;;;;4935577;29;20209;-68
2021/03/11 17:37:39;;;;;;;4.73;0.70;;;11.00;99.90;;;;;;4935408;29;20256;-69
2021/03/11 17:40:06;;;;;;;4.80;0.73;;;11.10;99.90;;;;;;4934443;29;20220;-67
2021/03/11 17:42:32;;;;;;;2.63;0.50;;;10.90;99.90;;;;;;4934863;29;20224;-66
2021/03/11 17:44:59;;;;;;;3.80;0.57;;;11.00;99.90;;;;;;4934771;29;20209;-67
2021/03/11 17:47:26;;;;;;;1.53;0.30;;;10.90;99.90;;;;;;4935787;29;20209;-68
2021/03/11 17:49:52;;;;;;;3.03;0.70;;;10.90;99.90;;;;;;4934798;29;20220;-69
2021/03/11 17:52:18;;;;;;;2.77;0.50;;;10.90;99.90;;;;;;4935137;29;20215;-68
2021/03/11 17:54:44;;;;;;;3.63;0.50;;;10.80;99.90;;;;;;4933694;29;20216;-66
2021/03/11 17:57:11;;;;;;;2.57;0.50;;;10.80;99.90;;;;;;4935398;29;20240;-66
2021/03/11 17:59:38;;;;;;;3.50;0.50;;;10.70;99.90;;;;;;4934225;29;20264;-68
2021/03/11 18:02:05;;;;;;;2.47;0.50;;;10.60;99.90;;;;;;4934057;29;20544;-66
2021/03/11 18:04:31;;;;;;;2.30;0.63;;;10.60;99.90;;;;;;4934727;29;20205;-66
2021/03/11 18:06:58;;;;;;;2.17;0.83;;;10.60;99.90;;;;;;4934722;29;20236;-68
2021/03/11 18:09:24;;;;;;;4.67;0.80;;;10.60;99.90;;;;;;4934134;29;20216;-67
2021/03/11 18:11:50;;;;;;;4.70;1.03;;;10.60;99.90;;;;;;4935088;29;20240;-68
2021/03/11 18:14:16;;;;;;;1.63;0.40;;;10.60;99.90;;;;;;4935705;29;20217;-66
2021/03/11 18:16:42;;;;;;;1.50;0.40;;;10.60;99.90;;;;;;4934598;29;20267;-67
2021/03/11 18:19:10;;;;;;;1.33;0.30;;;10.60;99.90;;;;;;4934324;29;20805;-66
2021/03/11 18:21:36;;;;;;;1.03;0.40;;;10.60;99.90;;;;;;4934172;29;20564;-67
2021/03/11 18:24:02;;;;;;;2.60;0.77;;;10.50;99.90;;;;;;4933850;29;20208;-67
2021/03/11 18:26:29;;;;;;;3.43;0.40;;;10.40;99.90;;;;;;4935171;29;20576;-67
2021/03/11 18:28:56;;;;;;;2.17;0.20;;;10.30;99.90;;;;;;4935100;29;20220;-67
2021/03/11 18:31:23;;;;;;;5.13;0.53;;;10.20;99.90;;;;;;4934975;29;20274;-68
2021/03/11 18:33:49;;;;;;;0.67;0.20;;;10.20;99.90;;;;;;4934932;29;20216;-67
2021/03/11 18:36:17;;;;;;;4.97;0.57;;;10.10;99.90;;;;;;4934532;29;20229;-68
2021/03/11 18:38:44;;;;;;;3.23;0.57;;;10.10;99.90;;;;;;4934533;29;20579;-67
2021/03/11 18:41:10;;;;;;;7.70;1.00;;;9.90;99.90;;;;;;4934680;29;20694;-67
2021/03/11 18:43:36;;;;;;;3.53;0.63;;;9.90;99.90;;;;;;4934965;29;20228;-68
2021/03/11 18:46:03;;;;;;;4.30;0.47;;;9.90;99.90;;;;;;4934575;29;20734;-67
2021/03/11 18:48:29;;;;;;;2.40;0.40;;;9.80;99.90;;;;;;4934740;29;20271;-67
2021/03/11 18:50:55;;;;;;;2.87;0.40;;;9.80;99.90;;;;;;4934479;29;20236;-68
2021/03/11 18:53:22;;;;;;;6.53;1.03;;;9.80;99.90;;;;;;4935046;29;20224;-67
2021/03/11 18:55:49;;;;;;;2.67;0.63;;;9.80;99.90;;;;;;4935024;29;20237;-67
2021/03/11 18:58:15;;;;;;;3.10;0.40;;;9.70;99.90;;;;;;4934837;29;20212;-67
2021/03/11 19:00:41;;;;;;;11.73;0.60;;;9.70;99.90;;;;;;4934415;29;20220;-68
2021/03/11 19:03:10;;;;;;;2.73;0.63;;;9.70;99.90;;;;;;4934510;29;20264;-67
2021/03/11 19:05:37;;;;;;;5.37;0.73;;;9.80;99.90;;;;;;4933690;29;20244;-66
2021/03/11 19:08:04;;;;;;;7.20;0.93;;;9.70;99.90;;;;;;4933032;29;20224;-66
2021/03/11 19:10:31;;;;;;;7.03;0.60;;;9.70;99.90;;;;;;4934112;29;20239;-67
2021/03/11 19:12:58;;;;;;;6.30;1.03;;;9.60;99.90;;;;;;4933606;29;20216;-67
2021/03/11 19:15:25;;;;;;;2.20;0.60;;;9.60;99.90;;;;;;4936917;29;20232;-67
2021/03/11 19:17:52;;;;;;;2.47;0.50;;;9.60;99.90;;;;;;4937756;29;20209;-67
2021/03/11 19:20:20;;;;;;;1.57;0.50;;;9.70;99.90;;;;;;4937125;29;20209;-67
2021/03/11 19:22:48;;;;;;;3.40;0.60;;;9.70;99.90;;;;;;4937233;29;20271;-67
2021/03/11 19:25:16;;;;;;;5.13;0.70;;;9.70;99.90;;;;;;4937702;29;20287;-66
2021/03/11 19:27:43;;;;;;;1.43;0.37;;;9.70;99.90;;;;;;4937573;29;20213;-67
2021/03/11 19:30:12;;;;;;;2.23;0.70;;;9.70;99.90;;;;;;4937048;29;20209;-71
2021/03/11 19:32:38;;;;;;;2.37;0.80;;;9.80;99.90;;;;;;4937142;29;20219;-74
2021/03/11 19:35:07;;;;;;;4.67;0.70;;;9.70;99.90;;;;;;4937843;29;20236;-68
2021/03/11 19:37:33;;;;;;;2.97;0.77;;;9.60;99.90;;;;;;4919011;29;20572;-67
2021/03/11 19:39:59;;;;;;;2.07;0.83;;;9.60;99.90;;;;;;4918209;29;20257;-67
2021/03/11 19:42:26;;;;;;;4.03;0.97;;;9.50;99.90;;;;;;4935328;29;20616;-65
2021/03/11 19:44:53;;;;;;;4.93;0.53;;;9.40;99.90;;;;;;4936329;29;20300;-68
2021/03/11 19:47:19;;;;;;;1.37;0.73;;;9.40;99.90;;;;;;4936195;29;20205;-66
2021/03/11 19:49:46;;;;;;;2.00;0.50;;;9.40;99.90;;;;;;4937291;29;20220;-65
2021/03/11 19:52:13;;;;;;;5.07;0.63;;;9.30;99.90;;;;;;4936764;29;20248;-65
2021/03/11 19:54:40;;;;;;;2.40;0.30;;;9.30;99.90;;;;;;4936758;29;20205;-66
2021/03/11 19:57:07;;;;;;;0.73;0.30;;;9.20;99.90;;;;;;4937228;29;20284;-67
2021/03/11 19:59:33;;;;;;;1.77;0.20;;;9.10;99.90;;;;;;4936805;29;20259;-65
2021/03/11 20:02:00;;;;;;;1.13;0.40;;;9.10;99.90;;;;;;4936782;29;20703;-71
2021/03/11 20:04:27;;;;;;;1.80;0.40;;;9.10;99.90;;;;;;4938546;29;20205;-71
2021/03/11 20:06:53;;;;;;;5.00;0.50;;;8.90;99.90;;;;;;4938458;29;20248;-68
2021/03/11 20:09:20;;;;;;;1.13;0.20;;;8.80;99.90;;;;;;4938281;29;20205;-66
2021/03/11 20:11:46;;;;;;;2.47;0.30;;;8.70;99.90;;;;;;4938093;29;20298;-70
2021/03/11 20:14:13;;;;;;;0.40;0.20;;;8.70;99.90;;;;;;4937931;29;20225;-72
2021/03/11 20:16:39;;;;;;;3.10;0.33;;;8.60;99.90;;;;;;4937919;29;20291;-71
2021/03/11 20:19:06;;;;;;;3.03;0.40;;;8.60;99.90;;;;;;4938058;29;20251;-67
2021/03/11 20:21:32;;;;;;;1.43;0.67;;;8.60;99.90;;;;;;4938167;29;20213;-67
2021/03/11 20:23:59;;;;;;;1.43;0.40;;;8.60;99.90;;;;;;4937769;29;20212;-67
2021/03/11 20:26:25;;;;;;;2.30;0.40;;;8.60;99.90;;;;;;4937335;29;20243;-67
2021/03/11 20:28:51;;;;;;;1.50;0.63;;;8.50;99.90;;;;;;4938135;29;20228;-67
2021/03/11 20:31:17;;;;;;;0.60;0.20;;;8.50;99.90;;;;;;4937658;29;20244;-71
2021/03/11 20:33:43;;;;;;;2.90;0.27;;;8.40;99.90;;;;;;4937839;29;20213;-66
2021/03/11 20:36:11;;;;;;;1.03;0.33;;;8.40;99.90;;;;;;4937689;29;20225;-67
2021/03/11 20:38:37;;;;;;;1.07;0.70;;;8.30;99.90;;;;;;4937279;29;20208;-67
2021/03/11 20:41:03;;;;;;;1.67;0.40;;;8.30;99.90;;;;;;4937391;29;20215;-67
2021/03/11 20:43:29;;;;;;;7.73;0.87;;;8.30;99.90;;;;;;4937270;29;20208;-67
2021/03/11 20:45:55;;;;;;;0.30;0.20;;;8.30;99.90;;;;;;4937319;29;20235;-67
2021/03/11 20:48:22;;;;;;;1.07;0.40;;;8.30;99.90;;;;;;4937824;29;20216;-66
2021/03/11 20:50:48;;;;;;;0.70;0.20;;;8.40;99.90;;;;;;4937177;29;20584;-67
2021/03/11 20:53:15;;;;;;;3.40;0.40;;;8.30;99.90;;;;;;4937460;29;20209;-67
2021/03/11 20:55:41;;;;;;;1.90;0.40;;;8.30;99.90;;;;;;4937051;29;20712;-67
2021/03/11 20:58:07;;;;;;;2.87;0.43;;;8.30;99.90;;;;;;4936786;29;20668;-67
2021/03/11 21:00:36;;;;;;;0.60;0.30;;;8.20;99.90;;;;;;4937140;29;20220;-69
2021/03/11 21:03:03;;;;;;;0.40;0.30;;;8.10;99.90;;;;;;4937328;29;20290;-67
2021/03/11 21:05:30;;;;;;;1.57;0.30;;;8.10;99.90;;;;;;4936774;29;20719;-69
2021/03/11 21:07:57;;;;;;;0.93;0.57;;;8.10;99.90;;;;;;4937393;29;20219;-68
2021/03/11 21:10:24;;;;;;;1.27;0.30;;;8.10;99.90;;;;;;4936786;29;20217;-67
2021/03/11 21:12:51;;;;;;;2.40;0.60;;;8.10;99.90;;;;;;4936869;29;20216;-70
2021/03/11 21:15:19;;;;;;;0.43;0.20;;;8.00;99.90;;;;;;4936756;29;20225;-68
2021/03/11 21:17:46;;;;;;;1.00;0.50;;;8.10;99.90;;;;;;4936812;29;20212;-67